createdAt,value
2022-11-10T00:01:59.719Z,7.09
2022-11-10T00:07:49.709Z,7.08
2022-11-10T00:13:58.530Z,7.07
2022-11-10T00:19:48.744Z,7.08
2022-11-10T00:25:38.947Z,7.10
2022-11-10T00:31:29.232Z,7.12
2022-11-10T00:37:19.450Z,7.11
2022-11-10T00:43:09.500Z,7.11
2022-11-10T00:48:59.664Z,7.10
2022-11-10T00:54:49.857Z,7.09
2022-11-10T01:00:40.535Z,7.08
2022-11-10T01:06:30.742Z,7.10
2022-11-10T01:12:20.867Z,7.10
2022-11-10T01:18:10.891Z,7.10
2022-11-10T01:24:01.353Z,7.10
2022-11-10T01:29:51.500Z,7.09
2022-11-10T01:35:41.847Z,7.10
2022-11-10T01:41:32.018Z,7.11
2022-11-10T01:47:21.912Z,7.11
2022-11-10T01:53:16.881Z,7.10
2022-11-10T01:59:11.756Z,7.10
2022-11-10T02:05:01.699Z,7.10
2022-11-10T02:10:51.568Z,7.11
2022-11-10T02:16:42.476Z,7.11
2022-11-10T02:22:33.485Z,7.12
2022-11-10T02:28:24.316Z,7.12
2022-11-10T02:34:14.571Z,7.12
2022-11-10T02:40:05.552Z,7.13
2022-11-10T02:45:55.338Z,7.13
2022-11-10T02:51:45.530Z,7.13
2022-11-10T02:57:35.398Z,7.15
2022-11-10T03:03:25.426Z,7.15
2022-11-10T03:09:15.591Z,7.16
2022-11-10T03:15:05.425Z,7.17
2022-11-10T03:20:55.118Z,7.16
2022-11-10T03:26:44.917Z,7.16
2022-11-10T03:32:35.202Z,7.17
2022-11-10T03:38:25.277Z,7.19
2022-11-10T03:44:15.344Z,7.22
2022-11-10T03:50:06.299Z,7.22
2022-11-10T03:55:56.185Z,7.23
2022-11-10T04:01:46.487Z,7.22
2022-11-10T04:07:54.955Z,7.23
2022-11-10T04:14:03.786Z,7.22
2022-11-10T04:19:54.018Z,7.23
2022-11-10T04:26:04.259Z,7.23
2022-11-10T04:31:54.316Z,7.22
2022-11-10T04:37:46.934Z,7.22
2022-11-10T04:43:37.412Z,7.21
2022-11-10T04:49:27.803Z,7.22
2022-11-10T04:55:17.649Z,7.21
2022-11-10T05:01:09.032Z,7.22
2022-11-10T05:06:59.346Z,7.22
2022-11-10T05:12:49.170Z,7.21
2022-11-10T05:18:39.262Z,7.21
2022-11-10T05:24:29.361Z,7.21
2022-11-10T05:30:19.787Z,7.21
2022-11-10T05:36:10.594Z,7.20
2022-11-10T05:42:00.425Z,7.21
2022-11-10T05:47:50.545Z,7.20
2022-11-10T05:53:40.618Z,7.21
2022-11-10T05:59:30.840Z,7.19
2022-11-10T06:05:20.453Z,7.17
2022-11-10T06:11:10.403Z,7.16
2022-11-10T06:17:00.514Z,7.15
2022-11-10T06:23:01.823Z,7.14
2022-11-10T06:28:51.770Z,7.14
2022-11-10T06:34:41.635Z,7.13
2022-11-10T06:40:32.986Z,7.11
2022-11-10T06:46:23.089Z,7.10
2022-11-10T06:52:13.198Z,7.08
2022-11-10T06:58:03.431Z,7.07
2022-11-10T07:04:18.165Z,7.06
2022-11-10T07:10:06.984Z,7.04
2022-11-10T07:15:57.478Z,7.04
2022-11-10T07:21:47.844Z,7.05
2022-11-10T07:27:38.229Z,7.07
2022-11-10T07:33:28.610Z,7.09
2022-11-10T07:39:18.808Z,7.11
2022-11-10T07:45:09.381Z,7.15
2022-11-10T07:50:59.163Z,7.16
2022-11-10T07:56:49.402Z,7.17
2022-11-10T08:02:39.235Z,7.21
2022-11-10T08:08:29.990Z,7.28
2022-11-10T08:14:20.179Z,7.34
2022-11-10T08:20:10.867Z,7.39
2022-11-10T08:26:01.552Z,7.45
2022-11-10T08:31:52.154Z,7.52
2022-11-10T08:37:42.424Z,7.60
2022-11-10T08:43:32.581Z,7.66
2022-11-10T08:49:22.660Z,7.70
2022-11-10T08:55:12.483Z,7.77
2022-11-10T09:01:02.731Z,7.83
2022-11-10T09:06:52.558Z,7.90
2022-11-10T09:12:43.406Z,7.97
2022-11-10T09:18:34.222Z,8.01
2022-11-10T09:24:30.022Z,8.08
2022-11-10T09:30:21.481Z,8.13
2022-11-10T09:36:11.327Z,8.21
2022-11-10T09:42:01.336Z,8.23
2022-11-10T09:48:02.195Z,8.27
2022-11-10T09:53:59.999Z,8.33
2022-11-10T09:59:50.622Z,8.36
2022-11-10T10:05:52.844Z,8.39
2022-11-10T10:12:04.319Z,8.47
2022-11-10T10:17:56.877Z,8.51
2022-11-10T10:24:09.555Z,8.58
2022-11-10T10:30:12.372Z,8.65
2022-11-10T10:36:08.942Z,8.69
2022-11-10T10:41:59.251Z,8.74
2022-11-10T10:47:52.212Z,8.77
2022-11-10T10:53:48.095Z,8.81
2022-11-10T10:59:38.229Z,8.87
2022-11-10T11:05:28.374Z,8.93
2022-11-10T11:11:18.213Z,8.96
2022-11-10T11:17:22.409Z,8.99
2022-11-10T11:23:34.052Z,9.04
2022-11-10T11:29:41.546Z,9.07
2022-11-10T11:35:34.343Z,9.10
2022-11-10T11:41:44.799Z,9.11
2022-11-10T11:47:45.943Z,9.16
2022-11-10T11:53:54.523Z,9.19
2022-11-10T12:00:00.269Z,9.22
2022-11-10T12:05:59.883Z,9.24
2022-11-10T12:11:59.735Z,9.26
2022-11-10T12:18:18.779Z,9.28
2022-11-10T12:24:27.535Z,9.31
2022-11-10T12:30:18.312Z,9.34
2022-11-10T12:36:13.260Z,9.38
2022-11-10T12:42:04.421Z,9.44
2022-11-10T12:47:56.461Z,9.48
2022-11-10T12:53:48.359Z,9.49
2022-11-10T12:59:40.836Z,9.47
2022-11-10T13:05:41.245Z,9.42
2022-11-10T13:11:36.635Z,9.43
2022-11-10T13:17:26.595Z,9.45
2022-11-10T13:23:24.776Z,9.44
2022-11-10T13:29:45.328Z,9.46
2022-11-10T13:35:38.365Z,9.47
2022-11-10T13:41:30.592Z,9.47
2022-11-10T13:47:35.214Z,9.45
2022-11-10T13:53:56.504Z,9.44
2022-11-10T13:59:56.627Z,9.40
2022-11-10T14:06:02.800Z,9.40
2022-11-10T14:12:06.045Z,9.39
2022-11-10T14:17:56.634Z,9.37
2022-11-10T14:23:51.109Z,9.35
2022-11-10T14:29:42.318Z,9.35
2022-11-10T14:35:54.128Z,9.38
2022-11-10T14:41:47.867Z,9.37
2022-11-10T14:47:38.351Z,9.36
2022-11-10T14:53:33.725Z,9.39
2022-11-10T14:59:25.259Z,9.42
2022-11-10T15:05:15.786Z,9.43
2022-11-10T15:11:06.675Z,9.43
2022-11-10T15:17:07.773Z,9.39
2022-11-10T15:22:59.773Z,9.37
2022-11-10T15:28:49.853Z,9.35
2022-11-10T15:34:45.056Z,9.31
2022-11-10T15:40:36.537Z,9.30
2022-11-10T15:46:26.858Z,9.28
2022-11-10T15:52:22.015Z,9.26
2022-11-10T15:58:20.745Z,9.25
2022-11-10T16:04:12.277Z,9.24
2022-11-10T16:10:02.347Z,9.20
2022-11-10T16:15:53.144Z,9.17
2022-11-10T16:21:43.271Z,9.08
2022-11-10T16:27:34.178Z,8.99
2022-11-10T16:33:24.898Z,8.93
2022-11-10T16:39:16.757Z,8.91
2022-11-10T16:45:17.032Z,8.89
2022-11-10T16:51:07.251Z,8.86
2022-11-10T16:56:57.545Z,8.82
2022-11-10T17:03:00.386Z,8.77
2022-11-10T17:08:52.936Z,8.74
2022-11-10T17:14:43.683Z,8.69
2022-11-10T17:20:37.969Z,8.66
2022-11-10T17:26:29.140Z,8.62
2022-11-10T17:32:24.243Z,8.59
2022-11-10T17:38:30.577Z,8.56
2022-11-10T17:44:21.025Z,8.55
2022-11-10T17:50:10.960Z,8.52
2022-11-10T17:56:00.994Z,8.50
2022-11-10T18:01:51.230Z,8.48
2022-11-10T18:07:41.729Z,8.46
2022-11-10T18:13:31.837Z,8.44
2022-11-10T18:19:21.780Z,8.41
2022-11-10T18:25:11.852Z,8.40
2022-11-10T18:31:09.530Z,8.38
2022-11-10T18:36:59.654Z,8.35
2022-11-10T18:42:50.154Z,8.31
2022-11-10T18:48:41.236Z,8.29
2022-11-10T18:54:31.594Z,8.31
2022-11-10T19:00:21.727Z,8.29
2022-11-10T19:06:13.465Z,8.26
2022-11-10T19:12:03.356Z,8.23
2022-11-10T19:17:53.623Z,8.22
2022-11-10T19:23:43.862Z,8.20
2022-11-10T19:29:34.385Z,8.15
2022-11-10T19:35:24.413Z,8.13
2022-11-10T19:41:17.839Z,8.09
2022-11-10T19:47:08.200Z,8.08
2022-11-10T19:52:58.380Z,8.03
2022-11-10T19:58:48.707Z,8.01
2022-11-10T20:04:58.709Z,7.98
2022-11-10T20:10:48.518Z,7.94
2022-11-10T20:16:38.631Z,7.93
2022-11-10T20:22:29.118Z,7.92
2022-11-10T20:28:19.500Z,7.89
2022-11-10T20:34:09.779Z,7.88
2022-11-10T20:40:00.134Z,7.85
2022-11-10T20:45:52.977Z,7.81
2022-11-10T20:51:43.594Z,7.78
2022-11-10T20:57:33.957Z,7.78
2022-11-10T21:03:24.450Z,7.77
2022-11-10T21:09:15.516Z,7.71
2022-11-10T21:15:06.075Z,7.59
2022-11-10T21:20:56.578Z,7.52
2022-11-10T21:26:46.888Z,7.49
2022-11-10T21:32:37.186Z,7.47
2022-11-10T21:38:27.451Z,7.46
2022-11-10T21:44:17.334Z,7.41
2022-11-10T21:50:07.232Z,7.36
2022-11-10T21:55:58.860Z,7.35
2022-11-10T22:01:48.762Z,7.36
2022-11-10T22:07:38.957Z,7.34
2022-11-10T22:13:47.443Z,7.30
2022-11-10T22:19:37.941Z,7.26
2022-11-10T22:25:27.751Z,7.25
2022-11-10T22:31:18.061Z,7.23
2022-11-10T22:37:08.311Z,7.22
2022-11-10T22:43:17.222Z,7.18
2022-11-10T22:49:09.789Z,7.18
2022-11-10T22:54:59.889Z,7.17
2022-11-10T23:00:50.000Z,7.15
2022-11-10T23:06:40.142Z,7.14
2022-11-10T23:12:30.448Z,7.11
2022-11-10T23:18:21.456Z,7.11
2022-11-10T23:24:13.503Z,7.09
2022-11-10T23:30:03.823Z,7.07
2022-11-10T23:35:53.740Z,7.07
2022-11-10T23:41:43.957Z,7.05
2022-11-10T23:47:33.800Z,7.03
2022-11-10T23:53:23.960Z,7.02
2022-11-10T23:59:13.740Z,7.01
